createdAt,value
2022-12-24T00:00:07.358Z,2.20
2022-12-24T00:02:34.313Z,2.50
2022-12-24T00:05:01.645Z,3.30
2022-12-24T00:07:28.716Z,2.50
2022-12-24T00:09:55.335Z,2.65
2022-12-24T00:12:22.039Z,2.45
2022-12-24T00:14:48.514Z,3.55
2022-12-24T00:17:15.147Z,2.30
2022-12-24T00:19:43.325Z,2.50
2022-12-24T00:22:09.965Z,2.83
2022-12-24T00:24:37.125Z,3.00
2022-12-24T00:27:05.656Z,2.80
2022-12-24T00:29:32.835Z,2.85
2022-12-24T00:31:59.777Z,2.23
2022-12-24T00:34:26.886Z,3.60
2022-12-24T00:36:53.459Z,4.35
2022-12-24T00:39:19.966Z,2.00
2022-12-24T00:41:46.522Z,2.00
2022-12-24T00:44:13.355Z,3.00
2022-12-24T00:46:41.462Z,2.63
2022-12-24T00:49:08.984Z,2.55
2022-12-24T00:51:37.114Z,2.42
2022-12-24T00:54:04.216Z,3.00
2022-12-24T00:56:30.831Z,3.07
2022-12-24T00:58:57.486Z,2.45
2022-12-24T01:01:25.551Z,2.55
2022-12-24T01:03:53.122Z,2.47
2022-12-24T01:06:21.388Z,2.72
2022-12-24T01:08:51.399Z,3.20
2022-12-24T01:11:18.532Z,2.50
2022-12-24T01:13:45.029Z,2.17
2022-12-24T01:16:20.813Z,2.55
2022-12-24T01:18:48.543Z,2.97
2022-12-24T01:21:15.461Z,3.37
2022-12-24T01:23:42.030Z,2.50
2022-12-24T01:26:12.102Z,2.55
2022-12-24T01:28:38.759Z,2.28
2022-12-24T01:31:17.161Z,3.03
2022-12-24T01:33:45.010Z,3.53
2022-12-24T01:36:12.615Z,2.20
2022-12-24T01:38:39.651Z,2.38
2022-12-24T01:41:25.209Z,2.40
2022-12-24T01:43:51.795Z,2.00
2022-12-24T01:46:30.066Z,1.77
2022-12-24T01:49:00.246Z,2.30
2022-12-24T01:51:56.011Z,2.58
2022-12-24T01:54:33.429Z,2.00
2022-12-24T01:57:11.281Z,2.60
2022-12-24T01:59:40.055Z,2.33
2022-12-24T02:02:07.213Z,2.55
2022-12-24T02:04:56.402Z,2.17
2022-12-24T02:07:23.205Z,2.10
2022-12-24T02:09:54.291Z,2.63
2022-12-24T02:12:20.951Z,3.05
2022-12-24T02:14:47.587Z,1.80
2022-12-24T02:17:20.189Z,3.33
2022-12-24T02:20:22.033Z,2.58
2022-12-24T02:23:09.635Z,2.92
2022-12-24T02:25:45.261Z,1.80
2022-12-24T02:28:30.491Z,2.27
2022-12-24T02:31:13.813Z,2.22
2022-12-24T02:33:59.041Z,2.08
2022-12-24T02:36:33.102Z,2.05
2022-12-24T02:39:06.229Z,3.10
2022-12-24T02:42:18.496Z,2.53
2022-12-24T02:44:50.966Z,2.92
2022-12-24T02:47:20.492Z,3.60
2022-12-24T02:49:48.591Z,2.63
2022-12-24T02:52:38.505Z,2.47
2022-12-24T02:55:12.212Z,2.13
2022-12-24T02:58:00.475Z,3.35
2022-12-24T03:00:35.460Z,1.95
2022-12-24T03:03:09.260Z,2.45
2022-12-24T03:06:11.671Z,2.10
2022-12-24T03:08:53.022Z,3.67
2022-12-24T03:11:20.039Z,2.10
2022-12-24T03:13:48.529Z,2.47
2022-12-24T03:16:21.338Z,3.05
2022-12-24T03:18:50.817Z,2.47
2022-12-24T03:21:24.125Z,2.53
2022-12-24T03:23:50.660Z,3.45
2022-12-24T03:26:19.393Z,2.75
2022-12-24T03:28:47.293Z,2.13
2022-12-24T03:31:14.458Z,2.72
2022-12-24T03:33:41.676Z,2.60
2022-12-24T03:36:09.118Z,2.00
2022-12-24T03:38:36.079Z,3.17
2022-12-24T03:41:03.855Z,2.20
2022-12-24T03:43:30.413Z,2.00
2022-12-24T03:45:57.018Z,2.20
2022-12-24T03:48:27.457Z,2.15
2022-12-24T03:50:58.922Z,1.88
2022-12-24T03:53:25.386Z,2.47
2022-12-24T03:55:51.849Z,2.13
2022-12-24T03:58:18.331Z,2.43
2022-12-24T04:00:48.070Z,2.60
2022-12-24T04:03:14.656Z,2.65
2022-12-24T04:05:41.432Z,2.38
2022-12-24T04:08:07.943Z,2.00
2022-12-24T04:10:34.419Z,1.23
2022-12-24T04:13:00.941Z,1.73
2022-12-24T04:15:27.410Z,2.40
2022-12-24T04:17:53.868Z,2.42
2022-12-24T04:20:20.483Z,2.45
2022-12-24T04:22:47.027Z,2.23
2022-12-24T04:25:13.562Z,2.85
2022-12-24T04:27:40.099Z,2.13
2022-12-24T04:30:07.353Z,2.47
2022-12-24T04:32:33.926Z,2.10
2022-12-24T04:35:00.392Z,1.63
2022-12-24T04:37:26.879Z,2.20
2022-12-24T04:39:53.433Z,1.35
2022-12-24T04:42:19.891Z,1.63
2022-12-24T04:44:46.395Z,1.88
2022-12-24T04:47:13.000Z,1.80
2022-12-24T04:49:39.550Z,2.60
2022-12-24T04:52:06.024Z,1.58
2022-12-24T04:54:32.548Z,1.77
2022-12-24T04:56:59.099Z,2.15
2022-12-24T04:59:25.573Z,1.33
2022-12-24T05:01:52.210Z,2.13
2022-12-24T05:04:18.783Z,3.20
2022-12-24T05:06:45.264Z,1.50
2022-12-24T05:09:11.757Z,1.88
2022-12-24T05:11:38.264Z,1.80
2022-12-24T05:14:04.869Z,2.22
2022-12-24T05:16:31.421Z,2.03
2022-12-24T05:18:57.952Z,1.88
2022-12-24T05:21:25.057Z,1.30
2022-12-24T05:24:11.800Z,1.80
2022-12-24T05:26:54.948Z,2.33
2022-12-24T05:29:22.060Z,1.65
2022-12-24T05:31:48.758Z,1.88
2022-12-24T05:34:16.625Z,1.75
2022-12-24T05:36:44.188Z,1.93
2022-12-24T05:39:16.217Z,1.75
2022-12-24T05:41:43.807Z,1.55
2022-12-24T05:44:10.463Z,2.42
2022-12-24T05:46:37.217Z,1.85
2022-12-24T05:49:03.903Z,1.87
2022-12-24T05:51:30.374Z,2.40
2022-12-24T05:53:56.879Z,2.58
2022-12-24T05:56:24.847Z,1.88
2022-12-24T05:58:53.561Z,2.30
2022-12-24T06:01:21.704Z,2.73
2022-12-24T06:03:49.929Z,1.42
2022-12-24T06:06:20.810Z,1.85
2022-12-24T06:08:48.499Z,1.50
2022-12-24T06:11:18.499Z,3.65
2022-12-24T06:13:45.133Z,1.50
2022-12-24T06:16:14.372Z,1.45
2022-12-24T06:18:41.544Z,2.17
2022-12-24T06:21:09.073Z,1.60
2022-12-24T06:23:38.093Z,1.77
2022-12-24T06:26:07.799Z,1.47
2022-12-24T06:28:36.307Z,1.80
2022-12-24T06:31:04.146Z,1.35
2022-12-24T06:33:32.196Z,1.50
2022-12-24T06:35:59.527Z,2.03
2022-12-24T06:38:32.101Z,1.70
2022-12-24T06:40:58.698Z,1.98
2022-12-24T06:43:25.722Z,1.55
2022-12-24T06:45:52.332Z,2.03
2022-12-24T06:48:18.825Z,1.67
2022-12-24T06:50:45.294Z,1.77
2022-12-24T06:53:11.980Z,1.83
2022-12-24T06:55:38.697Z,1.60
2022-12-24T06:58:05.775Z,1.90
2022-12-24T07:00:32.370Z,1.85
2022-12-24T07:02:59.041Z,1.57
2022-12-24T07:05:25.767Z,2.90
2022-12-24T07:07:52.394Z,1.00
2022-12-24T07:10:20.431Z,1.08
2022-12-24T07:12:47.691Z,1.45
2022-12-24T07:15:15.114Z,1.07
2022-12-24T07:17:41.921Z,1.38
2022-12-24T07:20:12.516Z,1.80
2022-12-24T07:22:39.019Z,1.42
2022-12-24T07:25:06.064Z,1.25
2022-12-24T07:27:32.714Z,1.17
2022-12-24T07:29:59.180Z,1.67
2022-12-24T07:32:25.911Z,1.45
2022-12-24T07:34:52.518Z,1.13
2022-12-24T07:37:19.001Z,1.50
2022-12-24T07:39:45.768Z,1.60
2022-12-24T07:42:12.274Z,2.00
2022-12-24T07:44:38.905Z,1.67
2022-12-24T07:47:05.472Z,1.42
2022-12-24T07:49:32.041Z,1.60
2022-12-24T07:51:58.611Z,1.30
2022-12-24T07:54:25.091Z,1.42
2022-12-24T07:56:51.640Z,1.27
2022-12-24T07:59:18.137Z,1.38
2022-12-24T08:01:45.775Z,1.60
2022-12-24T08:04:12.914Z,1.30
2022-12-24T08:06:40.092Z,1.85
2022-12-24T08:09:06.829Z,1.70
2022-12-24T08:11:33.554Z,2.38
2022-12-24T08:14:00.079Z,1.60
2022-12-24T08:16:26.586Z,1.50
2022-12-24T08:18:53.133Z,1.48
2022-12-24T08:21:19.583Z,1.23
2022-12-24T08:23:46.898Z,1.65
2022-12-24T08:26:13.783Z,1.48
2022-12-24T08:28:40.699Z,1.53
2022-12-24T08:31:07.502Z,1.48
2022-12-24T08:33:34.399Z,1.88
2022-12-24T08:36:02.634Z,1.30
2022-12-24T08:38:29.295Z,1.77
2022-12-24T08:40:55.955Z,1.67
2022-12-24T08:43:22.794Z,1.98
2022-12-24T08:45:50.093Z,2.22
2022-12-24T08:48:17.356Z,1.90
2022-12-24T08:50:44.223Z,1.63
2022-12-24T08:53:11.076Z,1.77
2022-12-24T08:55:38.128Z,2.13
2022-12-24T08:58:04.761Z,1.80
2022-12-24T09:00:31.574Z,2.03
2022-12-24T09:02:58.404Z,1.77
2022-12-24T09:05:26.131Z,1.70
2022-12-24T09:07:52.909Z,1.95
2022-12-24T09:10:19.806Z,1.85
2022-12-24T09:12:46.755Z,2.40
2022-12-24T09:15:14.350Z,1.17
2022-12-24T09:17:41.283Z,2.20
2022-12-24T09:20:08.697Z,1.95
2022-12-24T09:22:37.494Z,1.63
2022-12-24T09:25:06.352Z,2.45
2022-12-24T09:27:33.705Z,2.42
2022-12-24T09:30:00.353Z,2.17
2022-12-24T09:32:26.917Z,1.75
2022-12-24T09:34:53.774Z,2.17
2022-12-24T09:37:20.595Z,1.98
2022-12-24T09:39:47.081Z,2.40
2022-12-24T09:42:41.393Z,1.83
2022-12-24T09:45:24.482Z,2.45
2022-12-24T09:47:55.506Z,3.60
2022-12-24T09:50:31.204Z,3.60
2022-12-24T09:53:00.774Z,4.38
2022-12-24T09:55:32.607Z,4.67
2022-12-24T09:58:02.501Z,4.50
2022-12-24T10:00:37.637Z,4.95
2022-12-24T10:03:17.788Z,3.53
2022-12-24T10:06:05.728Z,3.08
2022-12-24T10:08:44.425Z,3.03
2022-12-24T10:11:20.544Z,2.65
2022-12-24T10:14:23.191Z,3.33
2022-12-24T10:17:15.871Z,2.80
2022-12-24T10:20:07.298Z,3.20
2022-12-24T10:22:44.085Z,2.87
2022-12-24T10:25:20.549Z,3.90
2022-12-24T10:27:47.817Z,3.63
2022-12-24T10:30:17.775Z,4.95
2022-12-24T10:32:47.190Z,3.47
2022-12-24T10:35:16.666Z,3.90
2022-12-24T10:37:45.181Z,3.25
2022-12-24T10:40:37.993Z,3.47
2022-12-24T10:43:23.234Z,3.60
2022-12-24T10:45:53.738Z,3.53
2022-12-24T10:48:30.394Z,4.00
2022-12-24T10:51:02.721Z,3.10
2022-12-24T10:53:40.493Z,3.15
2022-12-24T10:56:10.251Z,2.55
2022-12-24T10:58:37.333Z,2.08
2022-12-24T11:01:04.263Z,2.10
2022-12-24T11:03:34.890Z,2.78
2022-12-24T11:06:13.491Z,2.13
2022-12-24T11:08:45.332Z,2.90
2022-12-24T11:11:15.640Z,3.55
2022-12-24T11:13:57.143Z,2.47
2022-12-24T11:16:26.477Z,2.67
2022-12-24T11:18:56.069Z,1.95
2022-12-24T11:21:28.695Z,2.30
2022-12-24T11:24:20.200Z,2.63
2022-12-24T11:26:46.706Z,6.40
2022-12-24T11:29:16.075Z,4.35
2022-12-24T11:31:44.412Z,4.10
2022-12-24T11:34:22.566Z,2.90
2022-12-24T11:36:50.890Z,4.70
2022-12-24T11:39:23.414Z,2.43
2022-12-24T11:41:53.777Z,4.35
2022-12-24T11:44:26.741Z,3.30
2022-12-24T11:46:57.242Z,2.70
2022-12-24T11:49:27.945Z,2.65
2022-12-24T11:52:22.201Z,2.07
2022-12-24T11:54:59.809Z,3.60
2022-12-24T11:57:32.954Z,3.15
2022-12-24T11:59:59.497Z,2.58
2022-12-24T12:02:38.081Z,2.60
2022-12-24T12:05:11.348Z,2.67
2022-12-24T12:07:39.095Z,2.90
2022-12-24T12:10:20.905Z,2.78
2022-12-24T12:12:57.892Z,2.50
2022-12-24T12:15:28.512Z,2.33
2022-12-24T12:18:00.695Z,2.13
2022-12-24T12:20:39.288Z,3.40
2022-12-24T12:23:18.624Z,2.63
2022-12-24T12:26:01.789Z,2.30
2022-12-24T12:28:46.946Z,2.03
2022-12-24T12:31:22.335Z,2.60
2022-12-24T12:33:57.311Z,2.63
2022-12-24T12:36:31.420Z,2.92
2022-12-24T12:38:58.048Z,2.60
2022-12-24T12:41:27.258Z,3.55
2022-12-24T12:44:04.759Z,3.07
2022-12-24T12:46:47.971Z,2.58
2022-12-24T12:49:14.420Z,2.50
2022-12-24T12:51:57.906Z,2.20
2022-12-24T12:54:46.100Z,2.78
2022-12-24T12:57:17.009Z,2.13
2022-12-24T12:59:53.888Z,6.40
2022-12-24T13:03:14.847Z,6.15
2022-12-24T13:05:53.446Z,1.98
2022-12-24T13:08:31.983Z,2.97
2022-12-24T13:11:24.875Z,2.37
2022-12-24T13:14:16.162Z,3.35
2022-12-24T13:16:53.330Z,1.98
2022-12-24T13:19:56.763Z,1.98
2022-12-24T13:22:23.420Z,2.53
2022-12-24T13:24:59.165Z,2.90
2022-12-24T13:27:32.141Z,2.25
2022-12-24T13:30:09.638Z,3.30
2022-12-24T13:32:47.458Z,2.67
2022-12-24T13:35:19.979Z,2.28
2022-12-24T13:37:50.804Z,3.17
2022-12-24T13:40:27.037Z,2.50
2022-12-24T13:43:00.088Z,2.63
2022-12-24T13:45:29.879Z,2.65
2022-12-24T13:48:05.586Z,3.22
2022-12-24T13:50:50.406Z,3.80
2022-12-24T13:53:26.505Z,4.00
2022-12-24T13:55:55.782Z,4.82
2022-12-24T13:58:24.852Z,4.00
2022-12-24T14:01:02.072Z,4.35
2022-12-24T14:03:36.147Z,4.47
2022-12-24T14:06:13.756Z,3.60
2022-12-24T14:08:45.912Z,4.10
2022-12-24T14:11:14.248Z,2.88
2022-12-24T14:13:40.838Z,3.20
2022-12-24T14:16:28.575Z,3.27
2022-12-24T14:19:38.967Z,3.17
2022-12-24T14:22:34.101Z,2.63
2022-12-24T14:25:17.984Z,2.58
2022-12-24T14:27:54.151Z,2.97
2022-12-24T14:30:26.272Z,2.70
2022-12-24T14:32:54.156Z,3.58
2022-12-24T14:35:30.685Z,2.55
2022-12-24T14:37:58.756Z,3.22
2022-12-24T14:40:30.607Z,2.70
2022-12-24T14:43:16.447Z,2.70
2022-12-24T14:45:56.430Z,3.08
2022-12-24T14:48:29.820Z,3.65
2022-12-24T14:51:10.026Z,2.97
2022-12-24T14:54:19.084Z,2.45
2022-12-24T14:56:45.610Z,3.13
2022-12-24T14:59:17.239Z,3.42
2022-12-24T15:01:44.374Z,3.88
2022-12-24T15:04:10.909Z,3.13
2022-12-24T15:06:40.425Z,4.28
2022-12-24T15:09:19.592Z,3.80
2022-12-24T15:11:48.360Z,4.00
2022-12-24T15:14:16.457Z,4.25
2022-12-24T15:16:58.196Z,6.75
2022-12-24T15:19:29.166Z,8.35
2022-12-24T15:21:55.956Z,7.27
2022-12-24T15:24:32.256Z,5.97
2022-12-24T15:27:00.132Z,6.07
2022-12-24T15:29:32.490Z,6.10
2022-12-24T15:32:05.702Z,6.22
2022-12-24T15:34:36.043Z,6.37
2022-12-24T15:37:18.081Z,4.35
2022-12-24T15:39:52.230Z,5.63
2022-12-24T15:42:22.373Z,5.75
2022-12-24T15:45:05.895Z,3.95
2022-12-24T15:47:42.774Z,4.37
2022-12-24T15:50:17.154Z,3.97
2022-12-24T15:52:44.511Z,3.78
2022-12-24T15:55:33.533Z,3.63
2022-12-24T15:58:02.323Z,3.03
2022-12-24T16:00:31.224Z,3.47
2022-12-24T16:03:30.379Z,4.05
2022-12-24T16:06:01.220Z,3.38
2022-12-24T16:08:33.217Z,3.08
2022-12-24T16:11:05.881Z,3.47
2022-12-24T16:13:39.696Z,3.80
2022-12-24T16:16:08.586Z,3.67
2022-12-24T16:18:38.847Z,4.30
2022-12-24T16:21:07.440Z,3.75
2022-12-24T16:23:46.176Z,4.30
2022-12-24T16:26:12.772Z,4.43
2022-12-24T16:28:39.489Z,4.65
2022-12-24T16:31:06.151Z,7.88
2022-12-24T16:33:32.696Z,6.57
2022-12-24T16:35:59.354Z,7.30
2022-12-24T16:38:25.968Z,7.43
2022-12-24T16:40:52.795Z,8.68
2022-12-24T16:43:37.988Z,7.40
2022-12-24T16:46:07.399Z,9.65
2022-12-24T16:48:37.520Z,8.95
2022-12-24T16:51:04.120Z,6.77
2022-12-24T16:53:30.770Z,5.30
2022-12-24T16:55:57.277Z,4.63
2022-12-24T16:58:23.774Z,3.90
2022-12-24T17:00:50.272Z,3.92
2022-12-24T17:03:17.051Z,4.90
2022-12-24T17:05:44.577Z,4.55
2022-12-24T17:08:12.193Z,4.65
2022-12-24T17:10:38.982Z,5.10
2022-12-24T17:13:05.803Z,5.40
2022-12-24T17:15:32.705Z,5.13
2022-12-24T17:17:59.322Z,4.60
2022-12-24T17:20:26.530Z,4.60
2022-12-24T17:22:53.094Z,5.20
2022-12-24T17:25:19.820Z,4.78
2022-12-24T17:27:46.356Z,5.23
2022-12-24T17:30:13.189Z,3.92
2022-12-24T17:32:39.889Z,4.88
2022-12-24T17:35:07.645Z,4.07
2022-12-24T17:37:34.213Z,4.82
2022-12-24T17:40:00.902Z,4.23
2022-12-24T17:42:27.495Z,4.72
2022-12-24T17:44:53.988Z,4.68
2022-12-24T17:47:20.443Z,3.72
2022-12-24T17:49:46.974Z,2.85
2022-12-24T17:52:13.545Z,3.17
2022-12-24T17:54:40.084Z,3.13
2022-12-24T17:57:06.650Z,3.05
2022-12-24T17:59:33.145Z,2.97
2022-12-24T18:01:59.886Z,2.78
2022-12-24T18:04:26.579Z,2.70
2022-12-24T18:06:59.658Z,3.40
2022-12-24T18:09:28.949Z,3.97
2022-12-24T18:11:55.535Z,3.22
2022-12-24T18:14:22.089Z,3.80
2022-12-24T18:16:49.473Z,2.90
2022-12-24T18:19:16.403Z,5.10
2022-12-24T18:21:42.929Z,9.52
2022-12-24T18:24:12.343Z,5.45
2022-12-24T18:26:39.368Z,6.90
2022-12-24T18:29:06.134Z,5.63
2022-12-24T18:31:34.249Z,4.15
2022-12-24T18:34:02.952Z,3.35
2022-12-24T18:36:29.818Z,3.65
2022-12-24T18:38:56.828Z,3.10
2022-12-24T18:41:26.939Z,3.10
2022-12-24T18:43:54.623Z,3.17
2022-12-24T18:46:27.214Z,3.08
2022-12-24T18:48:57.615Z,2.90
2022-12-24T18:51:26.815Z,3.10
2022-12-24T18:53:53.295Z,2.63
2022-12-24T18:56:24.773Z,2.33
2022-12-24T18:59:01.633Z,2.60
2022-12-24T19:01:33.850Z,2.60
2022-12-24T19:04:00.911Z,2.60
2022-12-24T19:06:27.921Z,2.50
2022-12-24T19:08:58.559Z,3.40
2022-12-24T19:11:28.630Z,2.10
2022-12-24T19:13:55.413Z,1.98
2022-12-24T19:16:22.461Z,2.25
2022-12-24T19:18:49.836Z,1.90
2022-12-24T19:21:17.846Z,2.55
2022-12-24T19:23:45.589Z,2.67
2022-12-24T19:26:13.387Z,2.33
2022-12-24T19:28:40.263Z,2.40
2022-12-24T19:31:10.052Z,2.23
2022-12-24T19:33:43.883Z,1.58
2022-12-24T19:36:16.649Z,2.20
2022-12-24T19:38:43.906Z,2.47
2022-12-24T19:41:16.032Z,1.45
2022-12-24T19:43:45.384Z,1.87
2022-12-24T19:46:14.617Z,2.45
2022-12-24T19:48:42.607Z,2.90
2022-12-24T19:51:12.242Z,1.60
2022-12-24T19:53:39.583Z,1.98
2022-12-24T19:56:06.954Z,1.77
2022-12-24T19:58:33.513Z,1.50
2022-12-24T20:01:15.646Z,2.28
2022-12-24T20:03:44.331Z,1.35
2022-12-24T20:06:11.769Z,1.40
2022-12-24T20:08:38.762Z,1.03
2022-12-24T20:11:07.954Z,1.27
2022-12-24T20:13:35.358Z,1.50
2022-12-24T20:16:17.454Z,1.65
2022-12-24T20:18:44.118Z,2.03
2022-12-24T20:21:13.081Z,1.90
2022-12-24T20:23:41.190Z,1.33
2022-12-24T20:26:11.029Z,1.60
2022-12-24T20:28:38.505Z,1.23
2022-12-24T20:31:13.668Z,2.28
2022-12-24T20:33:41.351Z,2.73
2022-12-24T20:36:11.316Z,2.17
2022-12-24T20:38:39.058Z,1.45
2022-12-24T20:41:06.369Z,2.35
2022-12-24T20:43:37.304Z,2.30
2022-12-24T20:46:07.161Z,2.17
2022-12-24T20:48:33.872Z,1.38
2022-12-24T20:51:04.544Z,2.00
2022-12-24T20:53:31.057Z,1.10
2022-12-24T20:55:58.148Z,1.17
2022-12-24T20:58:24.661Z,1.47
2022-12-24T21:00:51.423Z,1.50
2022-12-24T21:03:18.775Z,1.30
2022-12-24T21:05:45.972Z,1.27
2022-12-24T21:08:13.513Z,1.63
2022-12-24T21:10:40.420Z,1.10
2022-12-24T21:13:07.532Z,0.82
2022-12-24T21:15:36.706Z,1.48
2022-12-24T21:18:10.201Z,1.20
2022-12-24T21:20:37.132Z,0.95
2022-12-24T21:23:03.709Z,1.13
2022-12-24T21:25:30.248Z,1.10
2022-12-24T21:27:56.740Z,1.13
2022-12-24T21:30:24.360Z,1.48
2022-12-24T21:32:51.307Z,1.23
2022-12-24T21:35:17.883Z,1.47
2022-12-24T21:37:44.500Z,1.45
2022-12-24T21:40:12.403Z,0.80
2022-12-24T21:42:38.914Z,0.90
2022-12-24T21:45:06.928Z,1.05
2022-12-24T21:47:35.261Z,1.33
2022-12-24T21:50:20.403Z,1.00
2022-12-24T21:52:46.933Z,1.45
2022-12-24T21:55:13.434Z,0.95
2022-12-24T21:57:55.078Z,0.88
2022-12-24T22:00:21.689Z,1.07
2022-12-24T22:02:54.098Z,0.88
2022-12-24T22:05:21.070Z,1.00
2022-12-24T22:08:07.955Z,0.95
2022-12-24T22:10:53.048Z,1.50
2022-12-24T22:13:20.623Z,0.80
2022-12-24T22:15:53.107Z,0.95
2022-12-24T22:18:22.643Z,1.08
2022-12-24T22:20:49.559Z,1.60
2022-12-24T22:23:17.500Z,1.20
2022-12-24T22:25:44.861Z,0.77
2022-12-24T22:28:11.743Z,1.10
2022-12-24T22:30:42.617Z,1.08
2022-12-24T22:33:10.035Z,1.20
2022-12-24T22:35:40.405Z,0.80
2022-12-24T22:38:09.065Z,1.10
2022-12-24T22:40:38.437Z,1.10
2022-12-24T22:43:04.928Z,1.40
2022-12-24T22:45:31.610Z,1.00
2022-12-24T22:47:58.094Z,1.13
2022-12-24T22:50:24.588Z,0.90
2022-12-24T22:52:52.704Z,0.90
2022-12-24T22:55:19.439Z,1.00
2022-12-24T22:57:45.985Z,0.90
2022-12-24T23:00:36.901Z,1.48
2022-12-24T23:03:05.145Z,0.70
2022-12-24T23:05:31.941Z,1.10
2022-12-24T23:07:58.577Z,0.90
2022-12-24T23:10:25.093Z,1.10
2022-12-24T23:13:14.851Z,1.42
2022-12-24T23:15:42.379Z,1.20
2022-12-24T23:18:09.105Z,1.55
2022-12-24T23:20:40.852Z,2.08
2022-12-24T23:23:07.327Z,1.10
2022-12-24T23:25:34.063Z,1.13
2022-12-24T23:28:00.839Z,0.60
2022-12-24T23:30:27.402Z,1.00
2022-12-24T23:32:54.919Z,1.02
2022-12-24T23:35:21.648Z,1.08
2022-12-24T23:37:48.235Z,0.93
2022-12-24T23:40:14.740Z,1.40
2022-12-24T23:42:41.262Z,1.27
2022-12-24T23:45:08.255Z,0.80
2022-12-24T23:47:35.665Z,1.05
2022-12-24T23:50:02.291Z,0.63
2022-12-24T23:52:28.819Z,1.10
2022-12-24T23:54:55.365Z,0.90
2022-12-24T23:57:21.879Z,0.60
2022-12-24T23:59:48.550Z,1.35
